createdAt,value
2023-03-02T00:00:40.277Z,5.32
2023-03-02T00:03:07.119Z,5.28
2023-03-02T00:05:34.502Z,5.29
2023-03-02T00:08:02.720Z,5.26
2023-03-02T00:10:29.457Z,5.30
2023-03-02T00:12:55.925Z,5.34
2023-03-02T00:15:22.437Z,5.33
2023-03-02T00:17:48.780Z,5.30
2023-03-02T00:20:15.278Z,5.30
2023-03-02T00:22:43.301Z,5.27
2023-03-02T00:25:11.407Z,5.25
2023-03-02T00:27:37.825Z,5.20
2023-03-02T00:30:05.123Z,5.25
2023-03-02T00:32:31.651Z,5.23
2023-03-02T00:34:58.305Z,5.24
2023-03-02T00:37:25.699Z,5.22
2023-03-02T00:39:53.296Z,5.17
2023-03-02T00:42:21.008Z,5.23
2023-03-02T00:44:47.453Z,5.21
2023-03-02T00:47:13.807Z,5.26
2023-03-02T00:49:40.157Z,5.22
2023-03-02T00:52:09.531Z,5.24
2023-03-02T00:54:35.878Z,5.26
2023-03-02T00:57:02.235Z,5.26
2023-03-02T00:59:28.621Z,5.29
2023-03-02T01:01:59.766Z,5.27
2023-03-02T01:04:38.725Z,5.26
2023-03-02T01:07:10.999Z,5.29
2023-03-02T01:09:38.842Z,5.27
2023-03-02T01:12:09.297Z,5.25
2023-03-02T01:14:37.037Z,5.22
2023-03-02T01:17:05.084Z,5.22
2023-03-02T01:19:32.130Z,5.23
2023-03-02T01:21:58.868Z,5.20
2023-03-02T01:24:25.625Z,5.18
2023-03-02T01:26:52.164Z,5.23
2023-03-02T01:29:19.121Z,5.23
2023-03-02T01:31:45.819Z,5.19
2023-03-02T01:34:12.313Z,5.25
2023-03-02T01:36:38.785Z,5.16
2023-03-02T01:39:05.200Z,5.21
2023-03-02T01:41:32.343Z,5.19
2023-03-02T01:43:58.751Z,5.17
2023-03-02T01:46:28.398Z,5.17
2023-03-02T01:49:02.433Z,5.24
2023-03-02T01:51:31.963Z,5.22
2023-03-02T01:54:04.040Z,5.22
2023-03-02T01:56:35.192Z,5.23
2023-03-02T01:59:07.564Z,5.09
2023-03-02T02:01:38.962Z,5.16
2023-03-02T02:04:07.488Z,5.10
2023-03-02T02:06:48.654Z,5.19
2023-03-02T02:09:19.437Z,5.22
2023-03-02T02:11:46.167Z,5.25
2023-03-02T02:14:13.141Z,5.22
2023-03-02T02:16:40.906Z,5.20
2023-03-02T02:19:24.557Z,5.21
2023-03-02T02:21:50.960Z,5.17
2023-03-02T02:24:28.415Z,5.19
2023-03-02T02:26:56.992Z,5.19
2023-03-02T02:29:53.384Z,5.14
2023-03-02T02:32:26.269Z,5.14
2023-03-02T02:35:07.411Z,5.17
2023-03-02T02:37:39.031Z,5.14
2023-03-02T02:40:11.229Z,5.14
2023-03-02T02:42:43.333Z,5.14
2023-03-02T02:45:23.061Z,5.14
2023-03-02T02:47:50.085Z,5.14
2023-03-02T02:50:20.621Z,5.20
2023-03-02T02:52:52.879Z,5.15
2023-03-02T02:55:23.516Z,5.16
2023-03-02T02:57:53.754Z,5.15
2023-03-02T03:00:21.903Z,5.20
2023-03-02T03:02:53.966Z,5.17
2023-03-02T03:05:20.345Z,5.15
2023-03-02T03:07:46.764Z,5.07
2023-03-02T03:10:24.212Z,5.09
2023-03-02T03:12:51.454Z,5.01
2023-03-02T03:15:18.421Z,4.86
2023-03-02T03:17:54.920Z,4.82
2023-03-02T03:20:22.986Z,4.83
2023-03-02T03:22:49.432Z,4.79
2023-03-02T03:25:15.830Z,4.80
2023-03-02T03:27:42.959Z,4.82
2023-03-02T03:30:12.590Z,4.94
2023-03-02T03:32:39.512Z,5.02
2023-03-02T03:35:08.725Z,5.09
2023-03-02T03:37:36.338Z,5.05
2023-03-02T03:40:03.541Z,5.09
2023-03-02T03:42:29.949Z,5.11
2023-03-02T03:44:56.346Z,5.12
2023-03-02T03:47:22.786Z,5.16
2023-03-02T03:49:49.230Z,5.11
2023-03-02T03:52:15.618Z,5.14
2023-03-02T03:54:42.056Z,5.06
2023-03-02T03:57:10.536Z,5.07
2023-03-02T03:59:36.892Z,5.13
2023-03-02T04:02:03.382Z,5.17
2023-03-02T04:04:33.579Z,5.22
2023-03-02T04:07:00.130Z,5.16
2023-03-02T04:09:27.331Z,5.12
2023-03-02T04:11:55.396Z,5.13
2023-03-02T04:14:23.739Z,5.05
2023-03-02T04:16:50.587Z,5.12
2023-03-02T04:19:17.604Z,5.19
2023-03-02T04:21:46.965Z,5.08
2023-03-02T04:24:14.416Z,5.04
2023-03-02T04:26:42.469Z,4.77
2023-03-02T04:29:09.850Z,4.79
2023-03-02T04:31:36.283Z,4.83
2023-03-02T04:34:06.115Z,4.88
2023-03-02T04:36:36.538Z,4.96
2023-03-02T04:39:05.751Z,5.02
2023-03-02T04:41:32.473Z,5.16
2023-03-02T04:43:58.814Z,5.25
2023-03-02T04:46:26.960Z,5.32
2023-03-02T04:48:54.206Z,5.35
2023-03-02T04:51:25.432Z,5.38
2023-03-02T04:53:52.695Z,5.45
2023-03-02T04:56:19.808Z,5.45
2023-03-02T04:58:46.551Z,5.43
2023-03-02T05:01:14.475Z,5.30
2023-03-02T05:03:41.379Z,5.41
2023-03-02T05:06:08.283Z,5.41
2023-03-02T05:08:34.769Z,5.49
2023-03-02T05:11:01.605Z,5.52
2023-03-02T05:13:28.939Z,5.54
2023-03-02T05:15:57.414Z,5.54
2023-03-02T05:18:24.997Z,5.43
2023-03-02T05:20:53.055Z,5.16
2023-03-02T05:23:25.469Z,5.29
2023-03-02T05:25:56.498Z,5.20
2023-03-02T05:28:25.135Z,5.25
2023-03-02T05:30:52.356Z,5.31
2023-03-02T05:33:19.552Z,5.39
2023-03-02T05:35:46.651Z,5.41
2023-03-02T05:38:14.205Z,5.41
2023-03-02T05:40:42.483Z,5.38
2023-03-02T05:43:09.605Z,5.32
2023-03-02T05:45:38.040Z,5.30
2023-03-02T05:48:05.527Z,5.42
2023-03-02T05:50:32.998Z,5.42
2023-03-02T05:53:00.211Z,5.37
2023-03-02T05:55:26.719Z,5.38
2023-03-02T05:57:53.094Z,5.40
2023-03-02T06:00:20.274Z,5.22
2023-03-02T06:02:47.300Z,5.23
2023-03-02T06:05:19.303Z,4.96
2023-03-02T06:07:45.960Z,5.17
2023-03-02T06:10:13.612Z,5.14
2023-03-02T06:12:40.870Z,5.18
2023-03-02T06:15:08.539Z,5.04
2023-03-02T06:17:35.096Z,5.04
2023-03-02T06:20:01.812Z,5.05
2023-03-02T06:22:28.118Z,5.10
2023-03-02T06:24:57.478Z,5.12
2023-03-02T06:27:23.828Z,5.03
2023-03-02T06:29:50.226Z,5.03
2023-03-02T06:32:16.725Z,5.22
2023-03-02T06:34:43.097Z,5.40
2023-03-02T06:37:09.534Z,5.50
2023-03-02T06:39:35.888Z,5.50
2023-03-02T06:42:02.228Z,5.57
2023-03-02T06:44:28.689Z,5.57
2023-03-02T06:46:57.733Z,5.57
2023-03-02T06:49:24.724Z,5.58
2023-03-02T06:51:51.052Z,5.54
2023-03-02T06:54:17.384Z,5.58
2023-03-02T06:56:43.714Z,5.55
2023-03-02T06:59:10.032Z,5.49
2023-03-02T07:01:36.682Z,5.52
2023-03-02T07:04:03.461Z,5.48
2023-03-02T07:06:29.894Z,5.57
2023-03-02T07:08:56.228Z,5.37
2023-03-02T07:11:22.654Z,5.41
2023-03-02T07:13:49.622Z,5.52
2023-03-02T07:16:16.155Z,5.57
2023-03-02T07:18:42.598Z,5.62
2023-03-02T07:21:09.106Z,5.62
2023-03-02T07:23:35.709Z,5.28
2023-03-02T07:26:02.032Z,5.36
2023-03-02T07:28:28.349Z,5.44
2023-03-02T07:30:54.698Z,5.55
2023-03-02T07:33:21.378Z,5.64
2023-03-02T07:35:48.445Z,5.68
2023-03-02T07:38:14.918Z,5.50
2023-03-02T07:40:42.003Z,5.43
2023-03-02T07:43:08.726Z,5.55
2023-03-02T07:45:35.219Z,5.59
2023-03-02T07:48:01.876Z,5.57
2023-03-02T07:50:28.224Z,5.53
2023-03-02T07:52:54.660Z,5.50
2023-03-02T07:55:21.007Z,5.52
2023-03-02T07:57:47.346Z,5.49
2023-03-02T08:00:14.468Z,5.57
2023-03-02T08:02:41.950Z,5.56
2023-03-02T08:05:09.676Z,5.45
2023-03-02T08:07:36.149Z,5.24
2023-03-02T08:10:02.839Z,5.33
2023-03-02T08:12:29.243Z,5.50
2023-03-02T08:14:55.993Z,5.55
2023-03-02T08:17:22.616Z,5.37
2023-03-02T08:19:49.006Z,5.47
2023-03-02T08:22:15.493Z,5.65
2023-03-02T08:24:42.775Z,5.72
2023-03-02T08:27:13.289Z,5.78
2023-03-02T08:29:39.629Z,5.77
2023-03-02T08:32:06.091Z,5.85
2023-03-02T08:34:32.509Z,5.91
2023-03-02T08:36:58.906Z,5.79
2023-03-02T08:39:25.459Z,5.78
2023-03-02T08:41:52.895Z,5.83
2023-03-02T08:44:22.036Z,5.86
2023-03-02T08:46:55.215Z,5.57
2023-03-02T08:49:21.554Z,5.65
2023-03-02T08:51:53.296Z,5.51
2023-03-02T08:54:20.706Z,5.66
2023-03-02T08:56:47.104Z,5.79
2023-03-02T08:59:13.631Z,5.80
2023-03-02T09:01:40.406Z,5.83
2023-03-02T09:04:09.079Z,5.87
2023-03-02T09:06:38.839Z,5.95
2023-03-02T09:09:06.740Z,5.99
2023-03-02T09:11:33.837Z,6.04
2023-03-02T09:14:00.636Z,6.10
2023-03-02T09:16:27.044Z,5.99
2023-03-02T09:18:54.304Z,5.98
2023-03-02T09:21:21.037Z,6.04
2023-03-02T09:23:47.370Z,6.16
2023-03-02T09:26:13.845Z,6.18
2023-03-02T09:28:40.217Z,6.18
2023-03-02T09:31:08.623Z,6.17
2023-03-02T09:33:35.363Z,6.21
2023-03-02T09:36:05.945Z,6.20
2023-03-02T09:38:32.267Z,6.21
2023-03-02T09:40:58.555Z,6.23
2023-03-02T09:43:42.450Z,6.20
2023-03-02T09:46:34.340Z,6.24
2023-03-02T09:49:16.379Z,6.29
2023-03-02T09:51:54.774Z,6.31
2023-03-02T09:54:25.054Z,6.25
2023-03-02T09:56:57.532Z,6.14
2023-03-02T09:59:43.544Z,6.28
2023-03-02T10:02:12.842Z,6.36
2023-03-02T10:04:50.192Z,6.43
2023-03-02T10:07:23.442Z,6.48
2023-03-02T10:09:49.807Z,6.53
2023-03-02T10:13:02.444Z,6.29
2023-03-02T10:15:51.359Z,6.43
2023-03-02T10:18:21.088Z,6.43
2023-03-02T10:20:56.211Z,6.31
2023-03-02T10:23:36.434Z,6.29
2023-03-02T10:26:12.595Z,6.37
2023-03-02T10:28:44.950Z,6.40
2023-03-02T10:31:24.671Z,6.19
2023-03-02T10:33:51.109Z,6.19
2023-03-02T10:36:31.077Z,6.17
2023-03-02T10:39:00.294Z,5.91
2023-03-02T10:41:32.719Z,6.06
2023-03-02T10:44:04.569Z,6.18
2023-03-02T10:46:46.089Z,6.22
2023-03-02T10:49:31.678Z,6.15
2023-03-02T10:52:10.928Z,6.29
2023-03-02T10:54:37.548Z,6.33
2023-03-02T10:57:25.148Z,6.33
2023-03-02T10:59:52.558Z,6.37
2023-03-02T11:02:24.894Z,6.46
2023-03-02T11:04:57.626Z,6.55
2023-03-02T11:07:28.898Z,6.55
2023-03-02T11:10:17.092Z,6.61
2023-03-02T11:12:47.903Z,6.61
2023-03-02T11:15:32.544Z,6.49
2023-03-02T11:18:15.729Z,6.51
2023-03-02T11:20:45.491Z,6.67
2023-03-02T11:23:23.977Z,6.63
2023-03-02T11:25:58.521Z,6.68
2023-03-02T11:29:03.596Z,6.68
2023-03-02T11:31:43.219Z,6.64
2023-03-02T11:34:21.434Z,6.75
2023-03-02T11:36:57.627Z,6.74
2023-03-02T11:39:46.566Z,6.76
2023-03-02T11:42:30.110Z,6.79
2023-03-02T11:44:57.139Z,6.80
2023-03-02T11:47:24.095Z,6.85
2023-03-02T11:50:01.164Z,6.87
2023-03-02T11:52:32.250Z,6.90
2023-03-02T11:55:20.134Z,6.91
2023-03-02T11:57:55.265Z,6.88
2023-03-02T12:00:30.264Z,6.93
2023-03-02T12:03:14.561Z,6.90
2023-03-02T12:05:43.234Z,6.96
2023-03-02T12:08:15.305Z,6.96
2023-03-02T12:10:45.335Z,6.95
2023-03-02T12:13:21.576Z,7.01
2023-03-02T12:15:52.684Z,6.92
2023-03-02T12:18:22.087Z,6.99
2023-03-02T12:21:04.440Z,6.99
2023-03-02T12:23:55.271Z,7.02
2023-03-02T12:26:21.542Z,7.08
2023-03-02T12:29:21.423Z,7.05
2023-03-02T12:31:53.947Z,7.12
2023-03-02T12:34:35.948Z,7.05
2023-03-02T12:37:17.527Z,6.99
2023-03-02T12:40:13.215Z,7.10
2023-03-02T12:42:50.951Z,7.11
2023-03-02T12:45:36.203Z,7.09
2023-03-02T12:48:13.550Z,7.10
2023-03-02T12:50:40.714Z,7.08
2023-03-02T12:53:17.502Z,7.14
2023-03-02T12:55:43.878Z,7.15
2023-03-02T12:58:25.910Z,7.12
2023-03-02T13:00:55.837Z,7.09
2023-03-02T13:03:23.025Z,7.14
2023-03-02T13:05:49.495Z,7.19
2023-03-02T13:08:27.477Z,7.11
2023-03-02T13:11:00.029Z,7.08
2023-03-02T13:13:35.308Z,7.13
2023-03-02T13:16:18.086Z,7.19
2023-03-02T13:18:45.174Z,7.17
2023-03-02T13:21:13.945Z,7.20
2023-03-02T13:23:51.763Z,7.21
2023-03-02T13:26:28.204Z,7.21
2023-03-02T13:29:19.178Z,7.20
2023-03-02T13:31:45.616Z,7.22
2023-03-02T13:34:28.801Z,7.23
2023-03-02T13:36:55.477Z,7.25
2023-03-02T13:39:27.058Z,7.26
2023-03-02T13:41:55.977Z,7.25
2023-03-02T13:44:31.220Z,7.13
2023-03-02T13:46:58.964Z,6.85
2023-03-02T13:49:33.888Z,6.68
2023-03-02T13:52:19.093Z,6.75
2023-03-02T13:54:47.090Z,6.80
2023-03-02T13:57:30.725Z,6.80
2023-03-02T13:59:59.103Z,6.92
2023-03-02T14:02:28.746Z,6.97
2023-03-02T14:04:56.051Z,7.08
2023-03-02T14:07:22.796Z,7.05
2023-03-02T14:09:49.179Z,7.05
2023-03-02T14:12:28.420Z,6.93
2023-03-02T14:14:58.200Z,7.08
2023-03-02T14:17:26.007Z,6.96
2023-03-02T14:19:52.837Z,7.09
2023-03-02T14:22:20.051Z,6.92
2023-03-02T14:24:49.668Z,6.96
2023-03-02T14:27:17.421Z,7.12
2023-03-02T14:29:45.722Z,7.12
2023-03-02T14:32:14.904Z,7.16
2023-03-02T14:34:42.040Z,7.22
2023-03-02T14:37:14.658Z,7.01
2023-03-02T14:39:43.662Z,6.94
2023-03-02T14:42:15.285Z,6.81
2023-03-02T14:44:42.697Z,6.84
2023-03-02T14:47:10.237Z,6.95
2023-03-02T14:49:37.331Z,6.98
2023-03-02T14:52:15.732Z,7.07
2023-03-02T14:54:46.308Z,7.04
2023-03-02T14:57:20.362Z,6.84
2023-03-02T14:59:47.688Z,6.96
2023-03-02T15:02:24.938Z,6.78
2023-03-02T15:04:56.026Z,6.90
2023-03-02T15:07:23.738Z,6.92
2023-03-02T15:09:50.080Z,6.84
2023-03-02T15:12:16.424Z,6.77
2023-03-02T15:14:42.791Z,6.88
2023-03-02T15:17:10.069Z,6.90
2023-03-02T15:19:36.421Z,6.84
2023-03-02T15:22:04.050Z,6.81
2023-03-02T15:24:33.169Z,6.58
2023-03-02T15:27:00.182Z,6.63
2023-03-02T15:29:26.530Z,6.48
2023-03-02T15:31:52.964Z,6.65
2023-03-02T15:34:19.374Z,6.65
2023-03-02T15:36:45.815Z,6.73
2023-03-02T15:39:14.189Z,6.77
2023-03-02T15:41:42.237Z,6.76
2023-03-02T15:44:17.229Z,6.61
2023-03-02T15:46:43.607Z,6.67
2023-03-02T15:49:09.941Z,6.74
2023-03-02T15:51:36.254Z,6.81
2023-03-02T15:54:02.590Z,6.86
2023-03-02T15:56:38.848Z,6.58
2023-03-02T15:59:10.004Z,6.53
2023-03-02T16:01:36.682Z,6.17
2023-03-02T16:04:03.101Z,6.18
2023-03-02T16:06:30.047Z,6.33
2023-03-02T16:08:56.363Z,6.39
2023-03-02T16:11:25.572Z,6.33
2023-03-02T16:13:52.308Z,6.34
2023-03-02T16:16:20.344Z,6.47
2023-03-02T16:18:51.349Z,6.56
2023-03-02T16:21:17.715Z,6.58
2023-03-02T16:23:44.446Z,6.68
2023-03-02T16:26:14.627Z,6.80
2023-03-02T16:28:42.090Z,6.88
2023-03-02T16:31:12.157Z,6.94
2023-03-02T16:33:40.093Z,6.98
2023-03-02T16:36:07.955Z,6.94
2023-03-02T16:38:34.683Z,7.02
2023-03-02T16:41:01.189Z,6.97
2023-03-02T16:43:27.593Z,6.91
2023-03-02T16:45:54.453Z,6.97
2023-03-02T16:48:21.052Z,6.97
2023-03-02T16:50:55.680Z,6.97
2023-03-02T16:53:22.175Z,7.04
2023-03-02T16:55:49.963Z,7.02
2023-03-02T16:58:16.815Z,7.07
2023-03-02T17:00:43.293Z,7.08
2023-03-02T17:03:09.693Z,7.07
2023-03-02T17:05:36.031Z,7.09
2023-03-02T17:08:02.700Z,7.10
2023-03-02T17:10:29.029Z,7.01
2023-03-02T17:12:55.403Z,7.07
2023-03-02T17:15:21.785Z,7.11
2023-03-02T17:17:48.115Z,7.18
2023-03-02T17:20:14.595Z,7.15
2023-03-02T17:22:40.934Z,7.18
2023-03-02T17:25:07.656Z,7.18
2023-03-02T17:27:33.998Z,7.13
2023-03-02T17:30:00.368Z,7.14
2023-03-02T17:32:26.868Z,7.12
2023-03-02T17:34:53.631Z,7.09
2023-03-02T17:37:20.110Z,6.87
2023-03-02T17:39:50.278Z,6.81
2023-03-02T17:42:16.600Z,6.85
2023-03-02T17:44:44.853Z,6.91
2023-03-02T17:47:13.610Z,6.99
2023-03-02T17:49:40.960Z,7.00
2023-03-02T17:52:07.309Z,6.99
2023-03-02T17:54:33.684Z,7.03
2023-03-02T17:57:00.037Z,7.05
2023-03-02T17:59:26.363Z,7.06
2023-03-02T18:01:52.681Z,7.04
2023-03-02T18:04:19.151Z,7.01
2023-03-02T18:06:45.508Z,7.01
2023-03-02T18:09:12.021Z,7.07
2023-03-02T18:11:38.494Z,7.05
2023-03-02T18:14:04.940Z,7.06
2023-03-02T18:16:33.667Z,7.03
2023-03-02T18:19:00.048Z,7.04
2023-03-02T18:21:26.398Z,7.07
2023-03-02T18:23:52.802Z,7.06
2023-03-02T18:26:19.322Z,7.10
2023-03-02T18:28:45.659Z,7.12
2023-03-02T18:31:15.070Z,7.15
2023-03-02T18:33:41.427Z,7.14
2023-03-02T18:36:08.244Z,7.09
2023-03-02T18:38:36.141Z,7.14
2023-03-02T18:41:04.986Z,7.13
2023-03-02T18:43:37.116Z,7.10
2023-03-02T18:46:05.046Z,7.11
2023-03-02T18:48:32.329Z,7.12
2023-03-02T18:50:59.593Z,7.05
2023-03-02T18:53:26.843Z,6.98
2023-03-02T18:55:56.692Z,7.01
2023-03-02T18:58:25.329Z,6.99
2023-03-02T19:00:53.549Z,6.95
2023-03-02T19:03:20.190Z,6.98
2023-03-02T19:05:46.661Z,6.87
2023-03-02T19:08:13.072Z,6.84
2023-03-02T19:10:42.122Z,6.87
2023-03-02T19:13:11.388Z,6.87
2023-03-02T19:15:40.198Z,6.81
2023-03-02T19:18:06.734Z,6.81
2023-03-02T19:20:33.258Z,6.85
2023-03-02T19:22:59.691Z,6.79
2023-03-02T19:25:26.059Z,6.83
2023-03-02T19:27:52.375Z,6.79
2023-03-02T19:30:23.090Z,6.74
2023-03-02T19:32:49.552Z,6.79
2023-03-02T19:35:19.359Z,6.80
2023-03-02T19:37:45.906Z,6.78
2023-03-02T19:40:14.301Z,6.79
2023-03-02T19:42:41.354Z,6.84
2023-03-02T19:45:12.387Z,6.82
2023-03-02T19:47:38.733Z,6.79
2023-03-02T19:50:06.374Z,6.77
2023-03-02T19:52:33.146Z,6.77
2023-03-02T19:54:59.620Z,6.77
2023-03-02T19:57:25.943Z,6.76
2023-03-02T19:59:52.660Z,6.71
2023-03-02T20:02:19.555Z,6.78
2023-03-02T20:04:46.752Z,6.75
2023-03-02T20:07:13.561Z,6.77
2023-03-02T20:09:42.161Z,6.74
2023-03-02T20:12:09.148Z,6.77
2023-03-02T20:14:35.981Z,6.67
2023-03-02T20:17:03.518Z,6.70
2023-03-02T20:19:30.129Z,6.62
2023-03-02T20:21:56.529Z,6.61
2023-03-02T20:24:22.891Z,6.63
2023-03-02T20:26:49.876Z,6.60
2023-03-02T20:29:17.728Z,6.61
2023-03-02T20:31:44.510Z,6.64
2023-03-02T20:34:14.172Z,6.64
2023-03-02T20:36:40.511Z,6.63
2023-03-02T20:39:23.722Z,6.59
2023-03-02T20:41:51.063Z,6.65
2023-03-02T20:44:18.577Z,6.56
2023-03-02T20:46:55.419Z,6.53
2023-03-02T20:49:23.824Z,6.57
2023-03-02T20:51:54.487Z,6.60
2023-03-02T20:54:23.867Z,6.64
2023-03-02T20:56:50.971Z,6.64
2023-03-02T20:59:17.437Z,6.65
2023-03-02T21:01:44.346Z,6.56
2023-03-02T21:04:11.091Z,6.61
2023-03-02T21:06:37.676Z,6.65
2023-03-02T21:09:07.205Z,6.60
2023-03-02T21:11:34.457Z,6.67
2023-03-02T21:14:01.981Z,6.68
2023-03-02T21:16:32.419Z,6.72
2023-03-02T21:19:02.247Z,6.71
2023-03-02T21:21:40.707Z,6.66
2023-03-02T21:24:10.047Z,6.66
2023-03-02T21:26:36.810Z,6.67
2023-03-02T21:29:05.066Z,6.54
2023-03-02T21:31:31.560Z,6.59
2023-03-02T21:33:58.189Z,6.62
2023-03-02T21:36:24.962Z,6.65
2023-03-02T21:38:52.339Z,6.64
2023-03-02T21:41:19.072Z,6.58
2023-03-02T21:43:45.791Z,6.57
2023-03-02T21:46:14.355Z,6.57
2023-03-02T21:48:40.822Z,6.55
2023-03-02T21:51:07.308Z,6.57
2023-03-02T21:53:33.707Z,6.60
2023-03-02T21:56:01.714Z,6.57
2023-03-02T21:58:28.799Z,6.52
2023-03-02T22:00:55.201Z,6.57
2023-03-02T22:03:21.744Z,6.50
2023-03-02T22:05:48.192Z,6.41
2023-03-02T22:08:21.258Z,6.25
2023-03-02T22:10:50.492Z,6.30
2023-03-02T22:13:27.178Z,6.30
2023-03-02T22:16:15.693Z,6.26
2023-03-02T22:18:43.534Z,6.05
2023-03-02T22:21:38.211Z,6.16
2023-03-02T22:24:21.424Z,6.07
2023-03-02T22:26:55.037Z,5.97
2023-03-02T22:29:38.148Z,6.08
2023-03-02T22:32:23.793Z,6.08
2023-03-02T22:34:53.260Z,5.69
2023-03-02T22:37:25.450Z,5.65
2023-03-02T22:39:59.582Z,5.82
2023-03-02T22:42:28.977Z,5.80
2023-03-02T22:44:58.516Z,5.45
2023-03-02T22:47:25.432Z,5.27
2023-03-02T22:49:58.685Z,5.12
2023-03-02T22:52:33.330Z,5.26
2023-03-02T22:54:59.705Z,5.38
2023-03-02T22:57:33.870Z,5.54
2023-03-02T23:00:33.043Z,5.53
2023-03-02T23:02:59.507Z,5.65
2023-03-02T23:05:28.601Z,5.67
2023-03-02T23:08:19.792Z,5.67
2023-03-02T23:10:47.374Z,5.66
2023-03-02T23:13:15.800Z,5.78
2023-03-02T23:15:42.467Z,5.52
2023-03-02T23:18:16.988Z,5.55
2023-03-02T23:20:43.420Z,5.66
2023-03-02T23:23:09.831Z,5.66
2023-03-02T23:25:36.223Z,5.73
2023-03-02T23:28:02.618Z,5.80
2023-03-02T23:30:29.042Z,5.82
2023-03-02T23:32:55.400Z,5.86
2023-03-02T23:35:21.789Z,5.86
2023-03-02T23:37:48.256Z,5.86
2023-03-02T23:40:15.356Z,5.79
2023-03-02T23:42:42.001Z,5.85
2023-03-02T23:45:09.111Z,5.82
2023-03-02T23:47:35.568Z,5.82
2023-03-02T23:50:02.031Z,5.85
2023-03-02T23:52:28.363Z,5.81
2023-03-02T23:54:54.723Z,5.61
2023-03-02T23:57:21.073Z,5.36
2023-03-02T23:59:47.533Z,5.12
